createdAt,value
2022-08-05T00:02:28.604Z,22.15
2022-08-05T00:04:59.805Z,22.13
2022-08-05T00:08:00.621Z,22.07
2022-08-05T00:18:31.046Z,21.96
2022-08-05T00:21:02.422Z,21.88
2022-08-05T00:23:45.901Z,21.84
2022-08-05T00:26:31.389Z,21.80
2022-08-05T00:29:38.069Z,21.74
2022-08-05T00:32:13.413Z,21.73
2022-08-05T00:35:06.941Z,21.71
2022-08-05T00:37:52.462Z,21.69
2022-08-05T00:40:34.918Z,21.74
2022-08-05T00:43:46.883Z,21.72
2022-08-05T00:46:42.497Z,21.63
2022-08-05T00:49:32.417Z,21.66
2022-08-05T00:52:02.051Z,21.66
2022-08-05T00:54:30.636Z,21.65
2022-08-05T00:57:01.480Z,21.66
2022-08-05T00:59:34.578Z,21.64
2022-08-05T01:02:35.209Z,21.64
2022-08-05T01:05:32.591Z,21.63
2022-08-05T01:08:40.528Z,21.62
2022-08-05T01:11:33.397Z,21.63
2022-08-05T01:14:33.246Z,21.62
2022-08-05T01:21:38.275Z,21.51
2022-08-05T01:24:37.480Z,21.48
2022-08-05T01:28:30.994Z,21.41
2022-08-05T01:31:33.170Z,21.28
2022-08-05T01:40:34.521Z,21.11
2022-08-05T01:50:34.099Z,20.82
2022-08-05T01:53:57.684Z,20.75
2022-08-05T02:14:14.260Z,20.53
2022-08-05T02:18:30.791Z,20.53
2022-08-05T02:24:37.748Z,20.42
2022-08-05T02:27:59.885Z,20.40
2022-08-05T02:34:37.102Z,20.35
2022-08-05T02:37:40.061Z,20.33
2022-08-05T02:44:33.897Z,20.19
2022-08-05T02:47:04.082Z,20.12
2022-08-05T02:49:42.622Z,20.06
2022-08-05T02:52:34.694Z,20.00
2022-08-05T02:55:05.431Z,19.93
2022-08-05T02:58:11.079Z,19.90
2022-08-05T03:00:38.042Z,19.85
2022-08-05T03:04:03.398Z,19.78
2022-08-05T03:06:56.335Z,19.68
2022-08-05T03:09:38.465Z,19.60
2022-08-05T03:12:36.167Z,19.52
2022-08-05T03:21:02.762Z,19.47
2022-08-05T03:23:36.186Z,19.39
2022-08-05T03:26:32.777Z,19.30
2022-08-05T03:29:04.045Z,19.23
2022-08-05T03:31:56.977Z,19.21
2022-08-05T03:34:51.220Z,19.14
2022-08-05T03:37:31.336Z,19.11
2022-08-05T03:40:33.984Z,19.09
2022-08-05T03:43:58.805Z,19.04
2022-08-05T03:45:58.923Z,19.02
2022-08-05T03:48:35.312Z,19.03
2022-08-05T03:52:38.248Z,19.05
2022-08-05T03:57:44.374Z,18.96
2022-08-05T04:00:37.895Z,18.93
2022-08-05T04:03:38.397Z,18.94
2022-08-05T04:06:33.300Z,18.92
2022-08-05T04:12:03.912Z,18.92
2022-08-05T04:15:06.457Z,18.91
2022-08-05T04:17:57.104Z,18.91
2022-08-05T04:20:36.015Z,18.92
2022-08-05T04:23:04.471Z,18.87
2022-08-05T04:25:56.414Z,18.85
2022-08-05T04:28:37.418Z,18.85
2022-08-05T04:31:46.302Z,18.81
2022-08-05T04:34:42.652Z,18.78
2022-08-05T04:37:12.763Z,18.77
2022-08-05T04:39:41.264Z,18.74
2022-08-05T04:42:32.924Z,18.74
2022-08-05T04:45:03.862Z,18.72
2022-08-05T04:47:38.605Z,18.72
2022-08-05T04:50:37.592Z,18.71
2022-08-05T04:53:35.537Z,18.66
2022-08-05T04:56:33.173Z,18.66
2022-08-05T04:59:21.824Z,18.66
2022-08-05T05:02:41.277Z,18.66
2022-08-05T05:05:34.623Z,18.67
2022-08-05T05:08:34.783Z,18.63
2022-08-05T05:11:06.174Z,18.66
2022-08-05T05:13:43.043Z,18.66
2022-08-05T05:19:18.570Z,18.61
2022-08-05T05:21:55.507Z,18.56
2022-08-05T05:24:59.014Z,18.52
2022-08-05T05:27:45.819Z,18.51
2022-08-05T05:30:34.305Z,18.51
2022-08-05T05:33:16.562Z,18.51
2022-08-05T05:35:47.988Z,18.52
2022-08-05T05:38:32.936Z,18.50
2022-08-05T05:41:04.250Z,18.48
2022-08-05T05:43:56.707Z,18.45
2022-08-05T05:49:41.564Z,18.39
2022-08-05T05:52:07.248Z,18.33
2022-08-05T05:54:50.404Z,18.32
2022-08-05T05:57:42.750Z,18.30
2022-08-05T06:00:34.286Z,18.29
2022-08-05T06:03:40.039Z,18.29
2022-08-05T06:06:34.938Z,18.31
2022-08-05T06:09:07.495Z,18.27
2022-08-05T06:11:39.403Z,18.27
2022-08-05T06:14:07.895Z,18.27
2022-08-05T06:16:37.472Z,18.28
2022-08-05T06:19:08.114Z,18.29
2022-08-05T06:21:38.818Z,18.26
2022-08-05T06:24:27.228Z,18.24
2022-08-05T06:27:04.305Z,18.23
2022-08-05T06:29:46.689Z,18.21
2022-08-05T06:32:32.190Z,18.20
2022-08-05T06:35:05.991Z,18.20
2022-08-05T06:37:57.601Z,18.19
2022-08-05T06:40:33.550Z,18.22
2022-08-05T06:43:04.491Z,18.24
2022-08-05T06:45:44.885Z,18.23
2022-08-05T06:48:50.472Z,18.28
2022-08-05T06:51:41.789Z,18.28
2022-08-05T06:54:32.366Z,18.22
2022-08-05T06:57:56.649Z,18.23
2022-08-05T07:00:04.933Z,18.24
2022-08-05T07:02:33.230Z,18.23
2022-08-05T07:05:03.633Z,18.20
2022-08-05T07:07:43.833Z,18.18
2022-08-05T07:10:35.291Z,18.18
2022-08-05T07:13:58.255Z,18.16
2022-08-05T07:18:02.123Z,18.16
2022-08-05T07:20:32.125Z,18.18
2022-08-05T07:23:30.834Z,18.22
2022-08-05T07:25:59.165Z,18.20
2022-08-05T07:28:33.657Z,18.21
2022-08-05T07:31:02.120Z,18.21
2022-08-05T07:33:36.821Z,18.19
2022-08-05T07:36:20.117Z,18.17
2022-08-05T07:38:54.956Z,18.16
2022-08-05T07:42:13.175Z,18.16
2022-08-05T07:44:19.697Z,18.19
2022-08-05T07:47:02.834Z,18.19
2022-08-05T07:49:43.497Z,18.21
2022-08-05T07:52:30.114Z,18.21
2022-08-05T07:55:16.089Z,18.23
2022-08-05T07:58:03.194Z,18.21
2022-08-05T08:00:34.565Z,18.24
2022-08-05T08:03:13.847Z,18.26
2022-08-05T08:05:49.670Z,18.25
2022-08-05T08:08:28.733Z,18.26
2022-08-05T08:11:02.791Z,18.28
2022-08-05T08:13:43.019Z,18.32
2022-08-05T08:16:35.577Z,18.36
2022-08-05T08:19:09.530Z,18.34
2022-08-05T08:22:03.289Z,18.33
2022-08-05T08:24:51.086Z,18.33
2022-08-05T08:27:40.088Z,18.34
2022-08-05T08:30:47.597Z,18.35
2022-08-05T08:33:24.851Z,18.32
2022-08-05T08:36:29.698Z,18.27
2022-08-05T08:38:53.284Z,18.18
2022-08-05T08:41:52.459Z,18.19
2022-08-05T08:45:18.161Z,18.20
2022-08-05T08:48:07.713Z,18.19
2022-08-05T08:50:51.939Z,18.18
2022-08-05T08:53:29.126Z,18.19
2022-08-05T08:56:06.079Z,18.18
2022-08-05T08:59:00.736Z,18.15
2022-08-05T09:01:29.403Z,18.14
2022-08-05T09:04:03.669Z,18.16
2022-08-05T09:06:41.208Z,18.13
2022-08-05T09:09:09.544Z,18.12
2022-08-05T09:11:53.430Z,18.12
2022-08-05T09:15:08.771Z,18.10
2022-08-05T09:17:40.465Z,18.09
2022-08-05T09:20:36.493Z,18.10
2022-08-05T09:23:18.784Z,18.14
2022-08-05T09:26:20.689Z,18.14
2022-08-05T09:29:01.917Z,18.10
2022-08-05T09:32:42.205Z,18.08
2022-08-05T09:34:52.796Z,18.19
2022-08-05T09:38:16.164Z,18.26
2022-08-05T09:40:51.949Z,18.28
2022-08-05T09:43:49.527Z,18.24
2022-08-05T09:46:32.004Z,18.19
2022-08-05T09:49:19.417Z,18.16
2022-08-05T09:51:51.524Z,18.19
2022-08-05T09:54:40.597Z,18.25
2022-08-05T09:57:43.133Z,18.29
2022-08-05T10:03:38.662Z,18.27
2022-08-05T10:06:26.540Z,18.30
2022-08-05T10:10:14.005Z,18.31
2022-08-05T10:13:03.419Z,18.34
2022-08-05T10:16:07.934Z,18.32
2022-08-05T10:21:39.991Z,18.40
2022-08-05T10:24:11.191Z,18.32
2022-08-05T10:27:01.279Z,18.26
2022-08-05T10:30:06.770Z,18.18
2022-08-05T10:33:02.030Z,18.14
2022-08-05T10:35:40.292Z,18.10
2022-08-05T10:38:11.871Z,18.06
2022-08-05T10:41:02.917Z,18.06
2022-08-05T10:43:56.329Z,18.04
2022-08-05T10:47:10.243Z,18.05
2022-08-05T10:50:32.175Z,18.12
2022-08-05T10:53:03.293Z,18.24
2022-08-05T10:56:03.785Z,18.26
2022-08-05T10:58:35.868Z,18.30
2022-08-05T11:01:08.756Z,18.40
2022-08-05T11:04:31.655Z,18.46
2022-08-05T11:07:05.311Z,18.58
2022-08-05T11:09:45.278Z,18.72
2022-08-05T11:12:55.107Z,18.75
2022-08-05T11:15:59.147Z,18.65
2022-08-05T11:18:35.229Z,18.59
2022-08-05T11:21:11.322Z,18.50
2022-08-05T11:24:05.471Z,18.46
2022-08-05T11:27:08.344Z,18.40
2022-08-05T11:29:53.383Z,18.39
2022-08-05T11:32:32.004Z,18.37
2022-08-05T11:35:03.354Z,18.42
2022-08-05T11:38:30.971Z,18.60
2022-08-05T11:41:35.061Z,18.52
2022-08-05T11:44:40.953Z,18.41
2022-08-05T11:47:14.210Z,18.43
2022-08-05T11:49:59.338Z,18.41
2022-08-05T11:52:31.185Z,18.41
2022-08-05T11:55:07.786Z,18.42
2022-08-05T11:58:09.615Z,18.30
2022-08-05T12:00:55.230Z,18.24
2022-08-05T12:03:32.166Z,18.21
2022-08-05T12:06:06.030Z,18.21
2022-08-05T12:08:35.321Z,18.17
2022-08-05T12:11:10.683Z,18.21
2022-08-05T12:14:04.389Z,18.26
2022-08-05T12:16:38.783Z,18.33
2022-08-05T12:20:25.443Z,18.37
2022-08-05T12:22:02.546Z,18.36
2022-08-05T12:24:33.997Z,18.34
2022-08-05T12:27:09.865Z,18.31
2022-08-05T12:30:07.943Z,18.25
2022-08-05T12:32:58.713Z,18.17
2022-08-05T12:35:37.181Z,18.28
2022-08-05T12:38:13.607Z,18.40
2022-08-05T12:41:00.158Z,18.51
2022-08-05T12:43:36.875Z,18.53
2022-08-05T12:46:34.956Z,18.55
2022-08-05T12:49:15.860Z,18.60
2022-08-05T12:52:13.455Z,18.58
2022-08-05T12:54:51.834Z,18.40
2022-08-05T12:57:23.324Z,18.22
2022-08-05T13:01:57.041Z,18.11
2022-08-05T13:02:47.231Z,18.08
2022-08-05T13:05:19.365Z,18.08
2022-08-05T13:07:59.346Z,18.07
2022-08-05T13:10:34.334Z,17.98
2022-08-05T13:13:08.949Z,17.94
2022-08-05T13:15:50.511Z,17.96
2022-08-05T13:18:24.966Z,17.90
2022-08-05T13:20:55.783Z,17.76
2022-08-05T13:23:29.711Z,17.73
2022-08-05T13:26:03.821Z,17.75
2022-08-05T13:28:32.718Z,17.82
2022-08-05T13:31:11.165Z,17.85
2022-08-05T13:34:22.158Z,17.82
2022-08-05T13:36:31.927Z,17.78
2022-08-05T13:39:08.483Z,17.83
2022-08-05T13:41:51.637Z,17.88
2022-08-05T13:44:19.929Z,17.90
2022-08-05T13:47:02.360Z,17.92
2022-08-05T13:49:36.801Z,17.88
2022-08-05T13:52:30.675Z,17.83
2022-08-05T13:55:07.457Z,17.82
2022-08-05T13:57:50.620Z,17.80
2022-08-05T14:00:27.698Z,17.82
2022-08-05T14:03:01.049Z,17.80
2022-08-05T14:06:25.013Z,17.77
2022-08-05T14:08:39.679Z,17.66
2022-08-05T14:12:18.070Z,17.63
2022-08-05T14:14:40.204Z,17.63
2022-08-05T14:17:30.000Z,17.66
2022-08-05T14:20:07.668Z,17.70
2022-08-05T14:22:36.606Z,17.70
2022-08-05T14:27:52.026Z,17.53
2022-08-05T14:30:27.787Z,17.50
2022-08-05T14:33:27.090Z,17.50
2022-08-05T14:36:02.190Z,17.49
2022-08-05T14:38:34.070Z,17.50
2022-08-05T14:41:17.795Z,17.46
2022-08-05T14:44:20.045Z,17.43
2022-08-05T14:47:01.905Z,17.47
2022-08-05T14:49:59.083Z,17.50
2022-08-05T14:52:59.413Z,17.52
2022-08-05T14:56:00.304Z,17.54
2022-08-05T15:03:03.326Z,17.58
2022-08-05T15:06:13.004Z,17.63
2022-08-05T15:12:03.969Z,17.59
2022-08-05T15:14:58.808Z,17.56
2022-08-05T15:17:46.749Z,17.56
2022-08-05T15:26:04.827Z,17.68
2022-08-05T15:28:58.675Z,17.74
2022-08-05T15:37:03.539Z,17.80
2022-08-05T15:41:02.131Z,17.86
2022-08-05T15:43:12.569Z,17.90
2022-08-05T15:46:01.602Z,17.91
2022-08-05T15:48:35.169Z,17.92
2022-08-05T15:51:09.371Z,17.83
2022-08-05T15:53:59.615Z,17.81
2022-08-05T15:56:31.950Z,17.84
2022-08-05T16:02:04.089Z,17.86
2022-08-05T16:04:59.617Z,17.87
2022-08-05T16:07:31.282Z,17.85
2022-08-05T16:10:00.533Z,17.83
2022-08-05T16:12:32.056Z,17.87
2022-08-05T16:16:00.117Z,17.87
2022-08-05T16:18:32.318Z,17.87
2022-08-05T16:24:06.459Z,17.97
2022-08-05T16:27:07.723Z,17.96
2022-08-05T16:30:30.654Z,17.93
2022-08-05T16:33:09.041Z,17.90
2022-08-05T16:46:23.528Z,17.87
2022-08-05T17:02:34.337Z,18.21
2022-08-05T17:25:01.022Z,19.46
2022-08-05T17:27:35.832Z,19.61
2022-08-05T17:30:28.874Z,19.71
2022-08-05T17:33:00.450Z,19.73
2022-08-05T17:36:36.083Z,19.73
2022-08-05T17:43:47.025Z,19.84
2022-08-05T17:46:30.945Z,19.94
2022-08-05T17:49:59.875Z,20.08
2022-08-05T18:04:04.363Z,20.22
2022-08-05T18:41:54.170Z,20.68
2022-08-05T18:54:01.727Z,20.69
2022-08-05T19:29:01.410Z,20.85
2022-08-05T20:27:46.512Z,21.72
2022-08-05T20:31:07.991Z,21.79
2022-08-05T20:34:01.312Z,21.88
2022-08-05T20:37:00.351Z,21.96
2022-08-05T20:47:06.710Z,22.10
2022-08-05T20:49:39.882Z,22.19
2022-08-05T20:56:07.457Z,22.26
2022-08-05T20:58:07.892Z,22.25
2022-08-05T21:00:51.789Z,22.28
2022-08-05T21:04:11.929Z,22.36
2022-08-05T21:13:11.008Z,22.41
2022-08-05T21:17:00.749Z,22.45
2022-08-05T21:23:02.975Z,22.60
2022-08-05T21:37:13.379Z,22.91
2022-08-05T21:40:00.750Z,23.00
2022-08-05T21:42:29.133Z,23.21
2022-08-05T21:45:51.609Z,23.53
2022-08-05T21:48:17.407Z,23.72
2022-08-05T21:50:58.918Z,23.82
2022-08-05T21:53:30.375Z,23.93
2022-08-05T21:56:09.816Z,24.06
2022-08-05T21:59:07.973Z,24.14
2022-08-05T22:05:59.635Z,24.05
2022-08-05T22:15:01.308Z,23.74
2022-08-05T22:17:31.254Z,23.80
2022-08-05T22:20:14.726Z,23.86
2022-08-05T22:24:03.359Z,23.90
2022-08-05T22:26:58.758Z,23.82
2022-08-05T22:29:32.972Z,23.76
2022-08-05T22:32:03.445Z,23.77
2022-08-05T22:35:05.532Z,23.79
2022-08-05T22:38:02.313Z,23.77
2022-08-05T22:40:31.022Z,23.67
2022-08-05T22:51:01.146Z,23.48
2022-08-05T22:54:04.487Z,23.44
2022-08-05T22:56:35.042Z,23.33
2022-08-05T22:59:44.200Z,23.27
2022-08-05T23:02:32.324Z,23.21
2022-08-05T23:05:01.597Z,23.15
2022-08-05T23:07:59.303Z,23.11
2022-08-05T23:10:30.884Z,23.08
2022-08-05T23:13:02.647Z,23.05
2022-08-05T23:15:34.788Z,22.95
2022-08-05T23:18:06.086Z,22.89
2022-08-05T23:21:01.692Z,22.85
2022-08-05T23:23:33.847Z,22.77
2022-08-05T23:26:02.188Z,22.68
2022-08-05T23:28:31.295Z,22.60
2022-08-05T23:31:15.653Z,22.51
2022-08-05T23:34:03.763Z,22.47
2022-08-05T23:36:39.951Z,22.45
2022-08-05T23:39:53.347Z,22.44
2022-08-05T23:42:32.297Z,22.38
2022-08-05T23:45:01.474Z,22.35
2022-08-05T23:47:33.630Z,22.29
2022-08-05T23:50:02.069Z,22.27
2022-08-05T23:52:36.244Z,22.32
2022-08-05T23:55:31.140Z,22.33
2022-08-05T23:58:02.035Z,22.29
